Time;durP1;ratioP1;P1;durP2;ratioP2;P2;SDS_P1;SDS_P2;PMS_P1;PMS_P2;Temp;Humidity;BMP_temperature;BMP_pressure;BME280_temperature;BME280_humidity;BME280_pressure;Samples;Min_cycle;Max_cycle;Signal;HPM_P1;HPM_P2
2023/04/29 00:01:21;;;;;;;1.80;1.00;;;10.20;99.90;;;;;;5011191;28;20199;-90
2023/04/29 00:03:49;;;;;;;0.82;0.82;;;10.10;99.90;;;;;;5027542;28;20207;-90
2023/04/29 00:06:16;;;;;;;1.17;1.08;;;10.10;99.90;;;;;;5029343;28;20207;-88
2023/04/29 00:08:43;;;;;;;2.63;1.90;;;10.10;99.90;;;;;;5025795;28;20203;-91
2023/04/29 00:11:11;;;;;;;1.58;1.48;;;10.10;99.90;;;;;;5026307;28;20287;-91
2023/04/29 00:13:39;;;;;;;2.17;1.98;;;10.10;99.90;;;;;;5011864;28;20226;-92
2023/04/29 00:16:07;;;;;;;1.67;1.05;;;10.10;99.90;;;;;;5010173;28;20269;-89
2023/04/29 00:18:35;;;;;;;1.48;1.08;;;10.10;99.90;;;;;;5024332;28;20303;-92
2023/04/29 00:21:05;;;;;;;1.63;1.00;;;10.00;99.90;;;;;;5019515;28;20203;-92
2023/04/29 00:23:32;;;;;;;1.20;1.10;;;10.00;99.90;;;;;;5027520;28;20218;-91
2023/04/29 00:25:59;;;;;;;1.10;0.90;;;10.00;99.90;;;;;;5008317;28;20230;-89
2023/04/29 00:28:27;;;;;;;1.20;1.10;;;10.00;99.90;;;;;;5021644;28;20203;-93
2023/04/29 00:30:54;;;;;;;1.30;1.20;;;10.00;99.90;;;;;;5010597;28;20230;-90
2023/04/29 00:33:21;;;;;;;1.25;1.13;;;10.00;99.90;;;;;;5009140;28;20667;-92
2023/04/29 00:35:48;;;;;;;3.28;1.30;;;10.00;99.90;;;;;;5007613;28;20660;-92
2023/04/29 00:38:17;;;;;;;1.20;1.10;;;9.90;99.90;;;;;;5022160;28;20198;-92
2023/04/29 00:40:44;;;;;;;2.45;1.02;;;10.00;99.90;;;;;;5010116;28;20207;-89
2023/04/29 00:43:11;;;;;;;0.90;0.90;;;10.00;99.90;;;;;;5024119;28;20199;-93
2023/04/29 00:45:38;;;;;;;0.85;0.82;;;10.10;99.90;;;;;;5027202;28;20829;-93
2023/04/29 00:48:05;;;;;;;0.88;0.80;;;10.10;99.90;;;;;;5030576;28;20211;-91
2023/04/29 00:50:33;;;;;;;1.20;1.10;;;10.20;99.90;;;;;;5023149;28;20212;-93
2023/04/29 00:53:00;;;;;;;2.40;1.00;;;10.30;99.90;;;;;;5029969;28;20234;-89
2023/04/29 00:55:29;;;;;;;1.75;1.65;;;10.40;99.90;;;;;;5030834;28;20211;-92
2023/04/29 00:57:57;;;;;;;1.30;1.20;;;10.50;99.90;;;;;;5026802;28;20215;-91
2023/04/29 01:00:25;;;;;;;1.30;1.20;;;10.50;99.90;;;;;;5020655;28;20204;-91
2023/04/29 01:02:55;;;;;;;0.90;0.90;;;10.50;99.90;;;;;;5030155;28;20191;-91
2023/04/29 01:05:23;;;;;;;0.95;0.95;;;10.60;99.90;;;;;;5027744;28;20257;-92
2023/04/29 01:07:58;;;;;;;0.90;0.90;;;10.60;99.90;;;;;;5023659;28;20195;-92
2023/04/29 01:10:32;;;;;;;1.27;1.17;;;10.60;99.90;;;;;;5010392;28;20218;-94
2023/04/29 01:13:07;;;;;;;1.60;1.10;;;10.50;99.90;;;;;;5031352;28;20195;-92
2023/04/29 01:15:43;;;;;;;0.90;0.90;;;10.50;99.90;;;;;;5025966;28;20194;-91
2023/04/29 01:18:15;;;;;;;1.33;1.23;;;10.40;99.90;;;;;;5022154;28;20207;-91
2023/04/29 01:20:44;;;;;;;1.65;1.35;;;10.40;99.90;;;;;;5013306;28;20235;-92
2023/04/29 01:23:11;;;;;;;3.42;1.20;;;10.40;99.90;;;;;;5017337;28;20207;-91
2023/04/29 01:25:39;;;;;;;1.35;1.25;;;10.40;99.90;;;;;;5015109;28;20196;-92
2023/04/29 01:28:18;;;;;;;1.63;1.52;;;10.40;99.90;;;;;;5023541;28;20207;-92
2023/04/29 01:30:50;;;;;;;1.10;1.10;;;10.40;99.90;;;;;;5029803;28;20222;-92
2023/04/29 01:33:23;;;;;;;1.35;1.25;;;10.40;99.90;;;;;;5032084;28;20199;-92
2023/04/29 01:36:05;;;;;;;1.27;1.17;;;10.50;99.90;;;;;;5010657;28;20212;-93
2023/04/29 01:38:40;;;;;;;3.03;1.30;;;10.50;99.90;;;;;;5011207;28;20199;-93
2023/04/29 01:41:16;;;;;;;1.23;1.20;;;10.40;99.90;;;;;;5019591;28;20203;-90
2023/04/29 01:43:47;;;;;;;2.78;1.13;;;10.40;99.90;;;;;;5007468;28;20645;-92
2023/04/29 01:46:18;;;;;;;1.02;0.90;;;10.40;99.90;;;;;;5029184;28;20207;-92
2023/04/29 01:48:45;;;;;;;3.92;1.10;;;10.40;99.90;;;;;;5017803;28;20200;-92
2023/04/29 01:51:12;;;;;;;1.00;1.00;;;10.40;99.90;;;;;;5027668;28;20251;-93
2023/04/29 01:53:40;;;;;;;1.00;1.00;;;10.40;99.90;;;;;;5011425;28;20576;-91
2023/04/29 01:56:08;;;;;;;1.58;1.10;;;10.50;99.90;;;;;;5021110;28;20238;-91
2023/04/29 01:58:36;;;;;;;2.25;1.40;;;10.50;99.90;;;;;;5020447;28;20664;-93
2023/04/29 02:01:03;;;;;;;1.33;1.10;;;10.50;99.90;;;;;;5025573;28;20356;-91
2023/04/29 02:03:30;;;;;;;1.25;1.15;;;10.40;99.90;;;;;;5027476;28;20199;-90
2023/04/29 02:05:57;;;;;;;1.75;1.30;;;10.50;99.90;;;;;;5028623;28;20199;-91
2023/04/29 02:08:24;;;;;;;1.45;1.35;;;10.50;99.90;;;;;;5014761;28;20195;-91
2023/04/29 02:10:55;;;;;;;1.35;1.25;;;10.50;99.90;;;;;;5013685;28;20227;-91
2023/04/29 02:13:22;;;;;;;1.20;1.10;;;10.50;99.90;;;;;;5030508;28;20195;-91
2023/04/29 02:15:51;;;;;;;2.13;1.48;;;10.50;99.90;;;;;;5033465;28;20211;-88
2023/04/29 02:18:21;;;;;;;3.47;1.45;;;10.50;99.90;;;;;;5017292;28;20203;-87
2023/04/29 02:20:49;;;;;;;1.50;1.40;;;10.60;99.90;;;;;;5029143;28;20250;-88
2023/04/29 02:23:29;;;;;;;2.15;1.50;;;10.60;99.90;;;;;;5031731;28;20235;-91
2023/04/29 02:25:56;;;;;;;1.65;1.17;;;10.70;99.90;;;;;;5025631;28;20197;-93
2023/04/29 02:28:24;;;;;;;1.30;1.20;;;10.70;99.90;;;;;;5026736;28;20573;-89
2023/04/29 02:30:53;;;;;;;1.60;1.50;;;10.60;99.90;;;;;;5005025;28;20247;-92
2023/04/29 02:33:20;;;;;;;1.65;1.30;;;10.60;99.90;;;;;;5013018;28;20203;-89
2023/04/29 02:35:47;;;;;;;2.03;1.55;;;10.70;99.90;;;;;;5011210;28;20203;-93
2023/04/29 02:38:14;;;;;;;2.10;1.52;;;10.70;99.90;;;;;;5005158;28;20276;-92
2023/04/29 02:40:42;;;;;;;1.30;1.20;;;10.60;99.90;;;;;;5020476;28;20199;-92
2023/04/29 02:43:09;;;;;;;1.52;1.40;;;10.60;99.90;;;;;;5028052;28;20210;-91
2023/04/29 02:45:36;;;;;;;1.45;1.20;;;10.60;99.90;;;;;;5029240;28;20191;-90
2023/04/29 02:48:06;;;;;;;1.40;1.30;;;10.60;99.90;;;;;;5024147;28;20226;-90
2023/04/29 02:50:33;;;;;;;1.67;1.40;;;10.60;99.90;;;;;;5028739;28;20282;-91
2023/04/29 02:53:01;;;;;;;3.92;1.30;;;10.60;99.90;;;;;;5024752;28;20207;-90
2023/04/29 02:55:27;;;;;;;1.40;1.30;;;10.60;99.90;;;;;;5021638;28;20214;-93
2023/04/29 02:57:54;;;;;;;1.50;1.40;;;10.60;99.90;;;;;;5025451;28;20233;-90
2023/04/29 03:00:24;;;;;;;2.05;1.60;;;10.60;99.90;;;;;;5027521;28;20196;-91
2023/04/29 03:02:51;;;;;;;1.35;1.25;;;10.60;99.90;;;;;;5015997;28;20195;-91
2023/04/29 03:05:20;;;;;;;1.80;1.30;;;10.60;99.90;;;;;;5024070;28;20234;-92
2023/04/29 03:07:47;;;;;;;1.88;1.50;;;10.60;99.90;;;;;;5011896;28;20195;-92
2023/04/29 03:10:14;;;;;;;1.65;1.35;;;10.60;99.90;;;;;;5008118;28;20757;-93
2023/04/29 03:12:41;;;;;;;1.60;1.50;;;10.60;99.90;;;;;;5026310;28;20223;-91
2023/04/29 03:15:09;;;;;;;2.05;1.17;;;10.60;99.90;;;;;;5027815;28;20207;-91
2023/04/29 03:17:36;;;;;;;1.73;1.40;;;10.60;99.90;;;;;;5030381;28;20215;-90
2023/04/29 03:20:04;;;;;;;2.40;1.23;;;10.70;99.90;;;;;;5009340;28;20270;-89
2023/04/29 03:22:33;;;;;;;1.65;1.50;;;10.70;99.90;;;;;;5005619;28;20205;-91
2023/04/29 03:25:01;;;;;;;3.10;1.45;;;10.80;99.90;;;;;;4990116;28;20199;-89
2023/04/29 03:27:28;;;;;;;3.40;1.65;;;10.70;99.90;;;;;;5025477;28;20230;-92
2023/04/29 03:29:56;;;;;;;1.40;1.30;;;10.80;99.90;;;;;;5023789;28;20199;-92
2023/04/29 03:32:36;;;;;;;1.58;1.48;;;10.80;99.90;;;;;;5015846;28;20219;-92
2023/04/29 03:35:04;;;;;;;1.50;1.40;;;10.80;99.90;;;;;;5025416;28;20192;-92
2023/04/29 03:37:32;;;;;;;2.45;1.40;;;10.80;99.90;;;;;;5026424;28;20206;-92
2023/04/29 03:40:08;;;;;;;1.92;1.52;;;10.80;99.90;;;;;;5017580;28;20230;-92
2023/04/29 03:42:36;;;;;;;3.13;1.50;;;10.80;99.90;;;;;;5018962;28;20229;-92
2023/04/29 03:45:06;;;;;;;1.48;1.38;;;10.80;99.90;;;;;;5026600;28;20621;-94
2023/04/29 03:47:33;;;;;;;2.35;1.52;;;10.80;99.90;;;;;;5017679;28;20183;-91
2023/04/29 03:50:01;;;;;;;2.80;1.48;;;10.80;99.90;;;;;;5005639;28;20207;-91
2023/04/29 03:52:28;;;;;;;1.90;1.70;;;10.70;99.90;;;;;;5024785;28;20219;-91
2023/04/29 03:54:56;;;;;;;2.95;1.73;;;10.80;99.90;;;;;;5025840;28;20237;-92
2023/04/29 03:57:23;;;;;;;2.70;1.70;;;10.80;99.90;;;;;;5023399;28;20245;-91
2023/04/29 03:59:50;;;;;;;2.88;1.70;;;10.80;99.90;;;;;;5023786;28;20278;-91
2023/04/29 04:02:19;;;;;;;1.80;1.70;;;10.70;99.90;;;;;;5029197;28;20200;-92
2023/04/29 04:04:46;;;;;;;2.35;1.60;;;10.80;99.90;;;;;;5028042;28;20206;-91
2023/04/29 04:07:13;;;;;;;5.40;2.00;;;10.80;99.90;;;;;;5027042;28;20216;-92
2023/04/29 04:09:43;;;;;;;1.70;1.60;;;10.80;99.90;;;;;;5027208;28;20199;-90
2023/04/29 04:12:11;;;;;;;1.90;1.80;;;10.80;99.90;;;;;;5019694;28;20257;-92
2023/04/29 04:14:38;;;;;;;2.50;1.80;;;10.80;99.90;;;;;;5024401;28;20682;-93
2023/04/29 04:17:06;;;;;;;1.70;1.60;;;10.90;99.90;;;;;;4995170;28;20212;-91
2023/04/29 04:19:33;;;;;;;3.08;1.75;;;10.90;99.90;;;;;;5025491;28;20191;-89
2023/04/29 04:22:01;;;;;;;1.70;1.60;;;10.90;99.90;;;;;;5024926;28;20242;-89
2023/04/29 04:24:29;;;;;;;3.15;1.92;;;11.00;99.90;;;;;;5022501;28;20229;-92
2023/04/29 04:26:56;;;;;;;2.35;1.90;;;11.00;99.90;;;;;;5026561;28;20253;-92
2023/04/29 04:50:09;;;;;;;2.00;1.90;;;11.20;99.90;;;;;;5594703;22;20221;-92
2023/04/29 04:55:11;;;;;;;2.30;2.10;;;11.20;99.90;;;;;;5673313;22;20213;-89
2023/04/29 05:02:51;;;;;;;5.78;1.83;;;11.50;99.90;;;;;;5532970;22;20236;-89
2023/04/29 05:05:20;;;;;;;2.58;2.05;;;11.60;99.90;;;;;;5034257;28;20266;-89
2023/04/29 05:10:25;;;;;;;3.97;2.10;;;11.70;99.90;;;;;;5675599;22;20245;-92
2023/04/29 05:12:52;;;;;;;2.40;2.20;;;11.70;99.90;;;;;;5024686;28;20219;-93
2023/04/29 05:15:20;;;;;;;2.03;1.92;;;11.80;99.90;;;;;;5008525;28;20222;-93
2023/04/29 05:17:47;;;;;;;2.60;2.40;;;11.90;99.90;;;;;;5140905;22;20276;-88
2023/04/29 05:20:14;;;;;;;2.13;2.00;;;11.90;99.90;;;;;;5031433;28;20225;-91
2023/04/29 05:22:42;;;;;;;3.60;2.00;;;12.00;99.90;;;;;;5034337;28;20202;-88
2023/04/29 05:25:10;;;;;;;3.08;2.10;;;12.10;99.90;;;;;;5029723;28;20199;-87
2023/04/29 05:27:37;;;;;;;2.75;2.10;;;12.20;99.90;;;;;;5036821;28;20217;-89
2023/04/29 05:30:05;;;;;;;2.10;1.90;;;12.30;99.90;;;;;;5022320;28;20687;-91
2023/04/29 05:32:32;;;;;;;1.98;1.80;;;12.30;99.90;;;;;;5037896;28;20313;-92
2023/04/29 05:34:59;;;;;;;2.55;2.03;;;12.40;99.90;;;;;;5036680;28;20253;-92
2023/04/29 05:40:14;;;;;;;2.92;2.63;;;12.60;99.90;;;;;;5051194;28;20194;-93
2023/04/29 05:42:50;;;;;;;2.20;1.80;;;12.80;99.90;;;;;;5056719;28;20202;-90
2023/04/29 05:45:17;;;;;;;1.98;1.88;;;12.90;99.90;;;;;;5030943;28;20202;-93
2023/04/29 05:47:45;;;;;;;2.05;1.85;;;12.90;99.90;;;;;;5051783;28;20226;-92
2023/04/29 05:50:11;;;;;;;2.92;1.90;;;13.10;99.90;;;;;;5032628;28;20301;-94
2023/04/29 05:52:39;;;;;;;4.05;2.40;;;13.30;99.90;;;;;;5040163;28;20226;-92
2023/04/29 05:55:06;;;;;;;2.00;1.90;;;13.60;99.90;;;;;;5036294;28;20289;-93
2023/04/29 05:57:35;;;;;;;3.03;1.77;;;13.80;99.90;;;;;;5031800;28;20199;-93
2023/04/29 06:00:02;;;;;;;3.85;1.90;;;13.90;99.90;;;;;;5031894;28;20210;-92
2023/04/29 06:02:29;;;;;;;2.50;2.30;;;14.00;99.90;;;;;;5035682;28;20272;-94
2023/04/29 06:04:56;;;;;;;1.85;1.75;;;14.00;99.90;;;;;;5029704;28;20191;-93
2023/04/29 06:07:24;;;;;;;2.10;1.73;;;13.80;99.90;;;;;;5031943;28;20750;-93
2023/04/29 06:09:51;;;;;;;2.58;2.00;;;13.90;99.90;;;;;;5030921;28;20222;-94
2023/04/29 06:12:18;;;;;;;2.97;2.08;;;14.00;99.90;;;;;;5027827;28;20226;-94
2023/04/29 06:14:46;;;;;;;3.10;1.92;;;14.20;99.90;;;;;;5036114;28;20648;-93
2023/04/29 06:17:13;;;;;;;2.15;1.95;;;14.20;99.90;;;;;;5032730;28;20231;-93
2023/04/29 06:19:40;;;;;;;2.90;2.00;;;14.20;99.90;;;;;;5027478;28;20203;-93
2023/04/29 06:22:07;;;;;;;2.92;2.60;;;14.20;99.90;;;;;;5035285;28;20195;-93
2023/04/29 06:24:34;;;;;;;2.15;1.90;;;14.40;99.90;;;;;;5031490;28;20195;-92
2023/04/29 06:27:03;;;;;;;2.60;2.40;;;14.40;99.90;;;;;;5024976;28;20206;-91
2023/04/29 06:29:29;;;;;;;3.00;2.70;;;14.50;99.90;;;;;;5027650;28;20686;-92
2023/04/29 06:31:58;;;;;;;3.03;2.35;;;14.60;99.90;;;;;;5028404;28;20229;-92
2023/04/29 06:34:25;;;;;;;5.25;3.05;;;14.50;99.90;;;;;;5029159;28;20203;-92
2023/04/29 06:36:52;;;;;;;5.28;2.60;;;14.70;99.90;;;;;;5021647;28;20209;-92
2023/04/29 06:39:19;;;;;;;2.47;2.25;;;14.60;99.90;;;;;;5026600;28;20245;-92
2023/04/29 06:41:46;;;;;;;3.00;2.70;;;14.70;99.90;;;;;;5032766;28;20282;-93
2023/04/29 06:44:13;;;;;;;3.88;2.90;;;14.80;99.90;;;;;;5030913;28;20206;-92
2023/04/29 06:46:40;;;;;;;3.65;2.80;;;14.70;99.90;;;;;;5021713;28;20537;-92
2023/04/29 06:49:08;;;;;;;3.63;3.03;;;14.60;99.90;;;;;;5029063;28;20203;-93
2023/04/29 06:51:37;;;;;;;3.30;2.88;;;14.60;99.90;;;;;;5009947;28;20656;-93
2023/04/29 06:54:03;;;;;;;7.50;3.10;;;14.60;99.90;;;;;;5029894;28;20210;-93
2023/04/29 06:56:31;;;;;;;3.28;2.90;;;14.80;99.90;;;;;;5031898;28;20202;-91
2023/04/29 06:58:57;;;;;;;3.80;3.40;;;14.90;99.90;;;;;;5006025;28;20203;-92
2023/04/29 07:01:24;;;;;;;3.70;2.75;;;15.00;99.90;;;;;;5028106;28;20190;-92
2023/04/29 07:03:52;;;;;;;4.25;3.13;;;15.00;99.90;;;;;;5031430;28;20244;-93
2023/04/29 07:06:20;;;;;;;3.50;3.17;;;15.10;99.90;;;;;;5027012;28;20205;-92
2023/04/29 07:08:47;;;;;;;4.70;2.90;;;15.10;99.90;;;;;;5028445;28;20198;-93
2023/04/29 07:11:14;;;;;;;4.35;3.08;;;15.20;99.90;;;;;;5038212;28;20199;-90
2023/04/29 07:13:41;;;;;;;3.35;3.05;;;15.30;99.90;;;;;;5030817;28;20229;-93
2023/04/29 07:16:16;;;;;;;3.35;2.85;;;15.40;99.60;;;;;;5032526;28;20202;-92
2023/04/29 07:18:42;;;;;;;3.38;3.08;;;15.60;99.00;;;;;;5029772;28;20891;-93
2023/04/29 07:21:09;;;;;;;4.82;3.50;;;15.70;99.20;;;;;;5027792;28;20203;-92
2023/04/29 07:23:38;;;;;;;3.35;3.05;;;15.60;99.60;;;;;;5027982;28;20198;-93
2023/04/29 07:26:10;;;;;;;3.22;2.92;;;15.60;99.00;;;;;;5029855;28;20577;-92
2023/04/29 07:28:37;;;;;;;3.25;2.95;;;15.60;99.30;;;;;;5004112;28;20283;-92
2023/04/29 07:31:06;;;;;;;8.82;3.25;;;15.60;99.20;;;;;;5027422;28;20206;-92
2023/04/29 07:33:34;;;;;;;4.80;3.00;;;15.50;98.70;;;;;;5020737;28;20317;-91
2023/04/29 07:36:01;;;;;;;3.70;3.20;;;15.50;98.80;;;;;;5025378;28;20641;-90
2023/04/29 07:38:28;;;;;;;3.50;3.20;;;15.60;98.30;;;;;;5027237;28;20262;-92
2023/04/29 07:40:57;;;;;;;3.75;3.28;;;15.80;97.90;;;;;;5018558;28;20286;-92
2023/04/29 07:43:24;;;;;;;3.22;2.92;;;15.90;97.70;;;;;;5030140;28;20206;-92
2023/04/29 07:45:51;;;;;;;3.70;3.20;;;16.10;97.20;;;;;;5021481;28;20265;-91
2023/04/29 07:48:20;;;;;;;3.20;2.90;;;16.20;97.20;;;;;;5030221;28;20296;-92
2023/04/29 07:50:47;;;;;;;4.45;3.00;;;16.30;97.20;;;;;;5030141;28;20213;-92
2023/04/29 07:53:14;;;;;;;6.07;3.10;;;16.50;97.30;;;;;;5030367;28;20219;-93
2023/04/29 07:55:41;;;;;;;3.60;2.90;;;16.60;96.20;;;;;;5025304;28;20199;-92
2023/04/29 07:58:10;;;;;;;5.18;3.35;;;16.70;95.20;;;;;;5026285;28;20206;-92
2023/04/29 08:00:37;;;;;;;5.95;3.20;;;16.70;94.70;;;;;;5017588;28;20210;-91
2023/04/29 08:03:04;;;;;;;5.85;2.92;;;16.70;95.20;;;;;;5028406;28;20203;-92
2023/04/29 08:05:31;;;;;;;4.75;2.80;;;16.70;94.90;;;;;;5030787;28;20199;-92
2023/04/29 08:07:58;;;;;;;3.22;2.72;;;16.90;95.00;;;;;;5032568;28;20213;-92
2023/04/29 08:10:26;;;;;;;3.40;3.10;;;17.30;94.80;;;;;;5032500;28;20205;-92
2023/04/29 08:12:52;;;;;;;3.63;2.90;;;17.20;92.80;;;;;;5015483;28;20242;-92
2023/04/29 08:15:21;;;;;;;4.35;3.03;;;17.10;92.80;;;;;;5027627;28;20198;-92
2023/04/29 08:17:48;;;;;;;3.30;2.80;;;17.20;92.30;;;;;;5021694;28;20222;-92
2023/04/29 08:20:15;;;;;;;3.40;2.60;;;17.30;92.40;;;;;;5030142;28;20199;-92
2023/04/29 08:22:42;;;;;;;4.78;2.63;;;17.70;92.40;;;;;;5030799;28;20717;-92
2023/04/29 08:25:10;;;;;;;3.25;2.85;;;17.60;90.30;;;;;;5029677;28;20199;-90
2023/04/29 08:27:37;;;;;;;3.72;2.53;;;17.30;90.30;;;;;;5031861;28;20191;-91
2023/04/29 08:30:05;;;;;;;4.38;2.53;;;17.20;91.20;;;;;;5034625;28;20210;-91
2023/04/29 08:32:34;;;;;;;4.88;2.63;;;16.90;91.90;;;;;;5030002;28;20226;-91
2023/04/29 08:35:01;;;;;;;2.60;2.40;;;16.70;91.90;;;;;;5024918;28;20203;-92
2023/04/29 08:37:27;;;;;;;4.93;2.65;;;16.50;93.10;;;;;;5031801;28;20201;-91
2023/04/29 08:39:54;;;;;;;3.08;2.50;;;16.40;93.10;;;;;;5033240;28;20199;-92
2023/04/29 08:42:35;;;;;;;3.45;2.40;;;16.20;93.70;;;;;;5028916;28;20207;-92
2023/04/29 08:45:02;;;;;;;2.50;2.30;;;16.10;94.10;;;;;;5032858;28;20199;-91
2023/04/29 08:47:30;;;;;;;2.65;2.45;;;15.90;92.80;;;;;;5022029;28;20566;-92
2023/04/29 08:50:02;;;;;;;5.07;2.40;;;15.70;93.10;;;;;;5010624;28;20702;-92
2023/04/29 08:52:30;;;;;;;8.05;2.40;;;15.60;93.80;;;;;;5027719;28;20242;-91
2023/04/29 08:54:57;;;;;;;3.03;2.05;;;16.00;94.30;;;;;;5025865;28;20206;-91
2023/04/29 08:57:26;;;;;;;2.60;1.92;;;16.70;91.90;;;;;;5023893;28;20206;-91
2023/04/29 08:59:53;;;;;;;3.10;2.10;;;17.30;88.30;;;;;;5029430;28;20225;-91
2023/04/29 09:02:22;;;;;;;2.47;2.28;;;17.80;86.20;;;;;;5034155;28;20213;-90
2023/04/29 09:04:59;;;;;;;3.67;1.77;;;18.60;75.40;;;;;;5049507;28;20197;-90
2023/04/29 09:07:28;;;;;;;2.30;2.10;;;19.30;72.50;;;;;;5051179;28;20198;-91
2023/04/29 09:09:56;;;;;;;4.72;1.65;;;20.20;56.10;;;;;;5037488;28;20194;-90
2023/04/29 09:12:23;;;;;;;2.35;1.50;;;20.90;49.10;;;;;;5026824;28;20652;-91
2023/04/29 09:14:50;;;;;;;3.63;1.80;;;21.00;40.20;;;;;;5040258;28;20210;-90
2023/04/29 09:17:17;;;;;;;3.03;1.90;;;21.30;38.00;;;;;;5044023;28;20713;-88
2023/04/29 09:19:44;;;;;;;10.68;7.15;;;21.40;36.60;;;;;;5039356;28;20283;-89
2023/04/29 09:22:11;;;;;;;2.53;2.00;;;21.10;36.10;;;;;;5045074;28;20207;-89
2023/04/29 09:24:40;;;;;;;2.10;1.63;;;20.60;37.60;;;;;;5034653;28;20207;-92
2023/04/29 09:27:08;;;;;;;2.33;1.80;;;21.00;38.70;;;;;;5034142;28;20222;-91
2023/04/29 09:29:37;;;;;;;2.17;1.60;;;20.80;36.90;;;;;;5031878;28;20199;-90
2023/04/29 09:32:22;;;;;;;2.05;1.70;;;20.20;38.70;;;;;;5032081;28;20265;-90
2023/04/29 09:34:50;;;;;;;1.80;1.70;;;20.40;37.50;;;;;;5034526;28;20199;-92
2023/04/29 09:37:25;;;;;;;2.03;1.73;;;20.70;38.50;;;;;;5039601;28;20202;-91
2023/04/29 09:39:53;;;;;;;2.00;1.52;;;20.80;34.60;;;;;;5043770;28;20195;-90
2023/04/29 09:42:20;;;;;;;3.42;1.60;;;20.60;33.90;;;;;;5041681;28;20195;-89
2023/04/29 09:44:47;;;;;;;3.35;1.60;;;20.20;35.90;;;;;;5046110;28;20494;-90
2023/04/29 09:47:14;;;;;;;1.77;1.67;;;19.90;37.90;;;;;;5042355;28;20597;-91
2023/04/29 09:49:44;;;;;;;1.83;1.60;;;19.30;42.00;;;;;;5044432;28;20207;-91
2023/04/29 09:52:13;;;;;;;1.85;1.50;;;18.80;45.60;;;;;;5042662;28;20213;-91
2023/04/29 09:54:42;;;;;;;3.35;1.40;;;18.10;46.90;;;;;;5044594;28;20225;-92
2023/04/29 09:57:14;;;;;;;3.28;1.35;;;17.80;57.10;;;;;;5041175;28;20206;-92
2023/04/29 09:59:42;;;;;;;1.50;1.40;;;17.80;68.20;;;;;;5044883;28;20195;-91
2023/04/29 10:02:16;;;;;;;1.80;1.50;;;18.00;63.80;;;;;;5037905;28;20208;-92
2023/04/29 10:04:46;;;;;;;3.45;1.88;;;18.80;54.80;;;;;;5038484;28;20197;-93
2023/04/29 10:07:16;;;;;;;1.60;1.50;;;19.90;52.70;;;;;;5043381;28;20684;-92
2023/04/29 10:09:45;;;;;;;1.88;1.30;;;21.10;40.70;;;;;;5040372;28;20765;-92
2023/04/29 10:12:16;;;;;;;2.03;1.50;;;21.60;33.40;;;;;;5024013;28;20206;-92
2023/04/29 10:14:48;;;;;;;2.63;1.30;;;21.90;30.20;;;;;;5036909;28;20281;-89
2023/04/29 10:17:20;;;;;;;3.30;1.50;;;22.00;32.00;;;;;;5035196;28;20218;-91
2023/04/29 10:19:53;;;;;;;2.75;1.38;;;22.20;27.10;;;;;;5042646;28;20218;-91
2023/04/29 10:22:27;;;;;;;1.60;1.50;;;22.40;28.40;;;;;;5039994;28;20230;-91
2023/04/29 10:24:56;;;;;;;1.58;1.35;;;21.90;28.50;;;;;;5046285;28;20214;-91
2023/04/29 10:27:25;;;;;;;2.47;2.03;;;21.50;31.20;;;;;;5045590;28;20229;-90
2023/04/29 10:29:53;;;;;;;2.60;2.10;;;21.10;33.00;;;;;;5044806;28;20615;-93
2023/04/29 10:32:22;;;;;;;2.22;2.03;;;20.70;35.70;;;;;;5046756;28;20187;-91
2023/04/29 10:34:51;;;;;;;2.50;2.30;;;20.50;44.60;;;;;;5044213;28;20258;-92
2023/04/29 10:37:19;;;;;;;2.88;2.15;;;20.30;38.30;;;;;;5046269;28;20202;-92
2023/04/29 10:39:57;;;;;;;2.13;1.83;;;19.90;40.70;;;;;;5044197;28;20199;-90
2023/04/29 10:42:44;;;;;;;2.58;2.15;;;19.60;43.40;;;;;;5028641;28;20206;-92
2023/04/29 10:45:18;;;;;;;2.53;2.33;;;19.60;43.70;;;;;;5044019;28;20178;-92
2023/04/29 10:48:10;;;;;;;4.53;2.30;;;19.30;46.90;;;;;;5065378;28;20191;-92
2023/04/29 10:50:59;;;;;;;5.05;2.70;;;19.00;50.70;;;;;;5040058;28;20199;-93
2023/04/29 10:53:28;;;;;;;2.60;2.40;;;19.10;68.40;;;;;;5039543;28;20223;-93
2023/04/29 10:56:00;;;;;;;5.88;3.00;;;19.60;59.20;;;;;;5040383;28;20195;-94
2023/04/29 10:58:50;;;;;;;3.88;2.03;;;20.40;43.70;;;;;;5040083;28;20683;-94
2023/04/29 11:01:18;;;;;;;1.90;1.80;;;20.80;37.50;;;;;;5045389;28;20206;-91
2023/04/29 11:03:57;;;;;;;2.58;1.98;;;21.30;37.40;;;;;;5043048;28;20207;-92
2023/04/29 11:06:25;;;;;;;2.08;1.88;;;20.90;33.00;;;;;;5044302;28;20226;-93
2023/04/29 11:09:02;;;;;;;3.58;2.00;;;20.20;33.90;;;;;;5039986;28;20198;-93
2023/04/29 11:11:56;;;;;;;2.00;1.80;;;19.40;35.40;;;;;;5033470;28;20273;-91
2023/04/29 11:14:27;;;;;;;3.33;1.80;;;19.00;39.20;;;;;;5036218;28;20277;-92
2023/04/29 11:16:57;;;;;;;2.38;1.90;;;18.70;45.60;;;;;;5036444;28;20206;-92
2023/04/29 11:19:30;;;;;;;2.92;1.92;;;18.80;44.90;;;;;;5035254;28;20214;-92
2023/04/29 11:22:16;;;;;;;1.85;1.75;;;18.90;45.50;;;;;;5036856;28;20191;-92
2023/04/29 11:24:54;;;;;;;3.53;1.90;;;19.10;45.40;;;;;;5032483;28;20195;-93
2023/04/29 11:27:24;;;;;;;1.88;1.70;;;19.30;43.80;;;;;;5038384;28;20195;-93
2023/04/29 11:29:57;;;;;;;3.95;1.65;;;19.40;38.70;;;;;;5031544;28;20863;-92
2023/04/29 11:32:24;;;;;;;1.83;1.70;;;19.70;38.60;;;;;;5042567;28;20203;-92
2023/04/29 11:34:53;;;;;;;1.83;1.73;;;19.70;34.10;;;;;;5041163;28;20218;-92
2023/04/29 11:37:24;;;;;;;1.70;1.60;;;19.50;36.10;;;;;;5038447;28;20199;-91
2023/04/29 11:39:57;;;;;;;1.85;1.60;;;19.30;36.60;;;;;;5040611;28;20699;-91
2023/04/29 11:42:24;;;;;;;3.20;1.80;;;19.00;36.10;;;;;;5037240;28;20198;-92
2023/04/29 11:44:55;;;;;;;3.30;1.80;;;18.90;36.20;;;;;;5033566;28;20199;-92
2023/04/29 11:47:27;;;;;;;1.83;1.70;;;18.70;36.60;;;;;;5032402;28;20202;-92
2023/04/29 11:49:54;;;;;;;2.72;1.67;;;18.70;37.30;;;;;;5026817;28;20193;-90
2023/04/29 11:52:21;;;;;;;1.63;1.52;;;19.00;38.30;;;;;;5026468;28;20218;-91
2023/04/29 11:54:48;;;;;;;2.47;1.50;;;19.00;37.30;;;;;;5028881;28;20225;-90
2023/04/29 11:57:15;;;;;;;2.28;1.42;;;19.00;35.80;;;;;;5027537;28;20206;-90
2023/04/29 11:59:42;;;;;;;2.70;1.52;;;19.10;37.30;;;;;;5028179;28;20195;-90
2023/04/29 12:02:16;;;;;;;2.25;1.70;;;19.20;32.40;;;;;;5029606;28;20244;-91
2023/04/29 12:04:46;;;;;;;1.40;1.30;;;19.20;31.40;;;;;;5032369;28;20202;-91
2023/04/29 12:07:15;;;;;;;4.60;1.50;;;19.20;31.40;;;;;;5027985;28;20252;-90
2023/04/29 12:09:43;;;;;;;1.50;1.40;;;19.20;31.40;;;;;;5031020;28;20547;-90
2023/04/29 12:12:10;;;;;;;1.83;1.58;;;19.20;31.40;;;;;;5026976;28;20202;-89
2023/04/29 12:14:38;;;;;;;2.63;1.40;;;19.50;31.60;;;;;;5022561;28;20718;-90
2023/04/29 12:17:05;;;;;;;2.65;1.50;;;19.70;31.80;;;;;;5028821;28;20206;-89
2023/04/29 12:19:36;;;;;;;1.50;1.38;;;19.60;31.70;;;;;;5023922;28;20225;-90
2023/04/29 12:22:04;;;;;;;2.53;1.50;;;19.40;31.60;;;;;;5030033;28;20202;-89
2023/04/29 12:24:35;;;;;;;3.13;1.38;;;19.30;32.70;;;;;;5027969;28;20198;-90
2023/04/29 12:27:03;;;;;;;1.35;1.23;;;19.30;31.50;;;;;;5021837;28;20571;-91
2023/04/29 12:29:32;;;;;;;1.42;1.20;;;19.30;31.50;;;;;;5023864;28;20308;-90
2023/04/29 12:31:59;;;;;;;1.42;1.33;;;19.60;30.40;;;;;;5046324;28;20198;-89
2023/04/29 12:34:27;;;;;;;1.45;1.30;;;19.60;29.20;;;;;;5048792;28;20272;-89
2023/04/29 12:36:57;;;;;;;1.35;1.25;;;19.60;29.10;;;;;;5055758;28;20225;-88
2023/04/29 12:39:24;;;;;;;8.20;3.50;;;19.30;28.50;;;;;;5032792;28;20200;-89
2023/04/29 12:41:56;;;;;;;1.55;1.42;;;19.30;31.50;;;;;;5031722;28;20218;-89
2023/04/29 12:44:23;;;;;;;1.73;1.40;;;19.40;30.90;;;;;;5030854;28;20210;-92
2023/04/29 12:46:52;;;;;;;1.80;1.50;;;19.60;28.60;;;;;;5024814;28;20255;-90
2023/04/29 12:49:20;;;;;;;1.90;1.33;;;19.50;30.50;;;;;;5028518;28;20206;-91
2023/04/29 12:51:47;;;;;;;2.65;1.38;;;19.70;31.80;;;;;;5031014;28;20321;-91
2023/04/29 12:54:15;;;;;;;1.67;1.40;;;20.10;27.30;;;;;;5025452;28;20233;-92
2023/04/29 12:56:42;;;;;;;2.85;1.85;;;20.00;28.80;;;;;;5029720;28;20256;-91
2023/04/29 12:59:10;;;;;;;3.75;1.77;;;20.00;27.80;;;;;;5024643;28;20221;-91
2023/04/29 13:01:37;;;;;;;2.95;1.70;;;20.10;28.30;;;;;;5031452;28;20217;-91
2023/04/29 13:04:07;;;;;;;1.55;1.45;;;20.00;28.50;;;;;;5030200;28;20270;-91
2023/04/29 13:06:38;;;;;;;2.47;1.80;;;19.90;27.10;;;;;;5020877;28;20279;-90
2023/04/29 13:09:05;;;;;;;2.25;1.58;;;19.60;27.70;;;;;;5028791;28;20202;-89
2023/04/29 13:11:34;;;;;;;2.75;1.13;;;19.40;28.00;;;;;;5025802;28;20199;-90
2023/04/29 13:14:01;;;;;;;2.33;1.60;;;19.30;27.80;;;;;;5028921;28;20215;-89
2023/04/29 13:16:28;;;;;;;2.50;2.08;;;19.40;27.70;;;;;;5031480;28;20566;-90
2023/04/29 13:18:56;;;;;;;2.38;1.40;;;19.40;27.90;;;;;;5030899;28;20229;-91
2023/04/29 13:21:23;;;;;;;1.45;1.10;;;19.50;27.80;;;;;;5025326;28;20206;-89
2023/04/29 13:23:50;;;;;;;1.30;1.20;;;19.60;29.60;;;;;;5022383;28;20203;-90
2023/04/29 13:26:18;;;;;;;3.25;1.23;;;19.20;28.30;;;;;;5021887;28;20201;-91
2023/04/29 13:28:47;;;;;;;1.20;1.10;;;19.00;28.60;;;;;;5028166;28;20210;-91
2023/04/29 13:31:14;;;;;;;1.70;1.17;;;18.90;28.70;;;;;;5031225;28;20693;-91